Time;durP1;ratioP1;P1;durP2;ratioP2;P2;SDS_P1;SDS_P2;PMS_P1;PMS_P2;Temp;Humidity;BMP_temperature;BMP_pressure;BME280_temperature;BME280_humidity;BME280_pressure;Samples;Min_cycle;Max_cycle;Signal;HPM_P1;HPM_P2
2022/08/28 00:01:45;;;;;;;29.93;27.23;;;17.90;99.90;;;;;;6247968;23;20221;-44
2022/08/28 00:04:11;;;;;;;28.67;26.03;;;17.80;99.90;;;;;;6245042;23;20460;-43
2022/08/28 00:06:37;;;;;;;27.87;25.37;;;17.80;99.90;;;;;;6245665;23;20156;-43
2022/08/28 00:09:03;;;;;;;24.63;22.50;;;17.80;99.90;;;;;;6245952;23;20482;-46
2022/08/28 00:11:28;;;;;;;27.17;24.77;;;17.90;99.90;;;;;;6245091;23;20205;-43
2022/08/28 00:13:54;;;;;;;28.93;26.43;;;17.90;99.90;;;;;;6247441;23;20389;-47
2022/08/28 00:16:20;;;;;;;29.37;26.80;;;18.00;99.90;;;;;;6247436;23;20519;-43
2022/08/28 00:18:46;;;;;;;28.67;26.07;;;18.00;99.90;;;;;;6250066;23;20154;-45
2022/08/28 00:21:11;;;;;;;25.57;23.43;;;18.10;99.90;;;;;;6249376;23;20138;-43
2022/08/28 00:23:37;;;;;;;29.93;27.13;;;18.10;99.90;;;;;;6249801;23;20436;-44
2022/08/28 00:26:03;;;;;;;24.40;22.30;;;18.20;99.90;;;;;;6248693;23;20168;-43
2022/08/28 00:28:29;;;;;;;26.80;24.50;;;18.20;99.90;;;;;;6248843;23;20489;-44
2022/08/28 00:30:57;;;;;;;23.77;21.80;;;18.20;99.90;;;;;;6248250;23;20140;-44
2022/08/28 00:33:32;;;;;;;22.97;20.87;;;18.30;99.90;;;;;;6247319;23;20544;-41
2022/08/28 00:35:59;;;;;;;25.43;23.13;;;18.30;99.90;;;;;;6249462;22;20364;-42
2022/08/28 00:38:27;;;;;;;24.20;22.20;;;18.40;99.90;;;;;;6247744;23;20475;-43
2022/08/28 00:40:57;;;;;;;24.43;22.33;;;18.40;99.90;;;;;;6248573;22;20353;-44
2022/08/28 00:43:37;;;;;;;24.23;22.13;;;18.50;99.90;;;;;;6249028;22;20419;-45
2022/08/28 00:46:06;;;;;;;25.73;23.57;;;18.50;99.90;;;;;;6249160;22;20410;-46
2022/08/28 00:48:32;;;;;;;27.33;25.00;;;18.60;99.90;;;;;;6248453;23;20803;-42
2022/08/28 00:53:42;;;;;;;24.40;22.40;;;18.60;99.90;;;;;;6245383;23;20449;-44
2022/08/28 00:56:10;;;;;;;25.50;23.30;;;18.60;99.90;;;;;;6244395;23;20426;-43
2022/08/28 00:58:37;;;;;;;32.17;29.30;;;18.60;99.90;;;;;;6245743;23;20357;-44
2022/08/28 01:01:03;;;;;;;30.33;27.57;;;18.60;99.90;;;;;;6245522;23;20403;-43
2022/08/28 01:03:29;;;;;;;24.50;22.50;;;18.60;99.90;;;;;;6246128;23;20361;-44
2022/08/28 01:05:55;;;;;;;24.83;22.83;;;18.60;99.90;;;;;;6246940;23;20388;-43
2022/08/28 01:08:20;;;;;;;25.00;22.90;;;18.60;99.90;;;;;;6245534;23;20145;-42
2022/08/28 01:10:49;;;;;;;25.77;23.67;;;18.60;99.90;;;;;;6246205;23;20621;-43
2022/08/28 01:13:15;;;;;;;25.83;23.63;;;18.60;99.90;;;;;;6247516;23;20142;-46
2022/08/28 01:15:41;;;;;;;22.37;20.47;;;18.70;99.90;;;;;;6247677;23;20473;-48
2022/08/28 01:18:10;;;;;;;22.47;20.47;;;18.70;99.90;;;;;;6247957;23;20211;-43
2022/08/28 01:20:38;;;;;;;22.30;20.40;;;18.70;99.90;;;;;;6247411;23;20390;-42
2022/08/28 01:23:07;;;;;;;24.70;22.67;;;18.70;99.90;;;;;;6246459;23;20384;-43
2022/08/28 01:25:34;;;;;;;23.87;21.80;;;18.70;99.90;;;;;;6247831;23;20431;-45
2022/08/28 01:28:04;;;;;;;23.10;21.20;;;18.70;99.90;;;;;;6248433;23;20438;-47
2022/08/28 01:30:31;;;;;;;22.90;21.10;;;18.70;99.90;;;;;;6247908;23;20349;-48
2022/08/28 01:32:57;;;;;;;24.27;22.23;;;18.80;99.90;;;;;;6249342;23;20381;-44
2022/08/28 01:35:31;;;;;;;22.67;20.70;;;18.80;99.90;;;;;;6246442;23;20484;-44
2022/08/28 01:37:57;;;;;;;23.73;21.73;;;18.80;99.90;;;;;;6248239;23;20379;-43
2022/08/28 01:40:35;;;;;;;21.03;19.23;;;18.80;99.90;;;;;;6249547;23;20356;-43
2022/08/28 01:43:11;;;;;;;21.90;20.20;;;18.80;99.90;;;;;;6250678;23;20387;-45
2022/08/28 01:45:43;;;;;;;21.83;20.07;;;18.80;99.90;;;;;;6247999;23;20406;-44
2022/08/28 01:48:09;;;;;;;22.10;20.23;;;18.80;99.90;;;;;;6248342;23;20482;-45
2022/08/28 01:53:57;;;;;;;22.17;20.27;;;18.80;99.90;;;;;;6248190;23;20383;-46
2022/08/28 01:56:23;;;;;;;21.80;20.10;;;18.80;99.90;;;;;;6248643;23;20401;-42
2022/08/28 01:58:48;;;;;;;24.30;22.30;;;18.80;99.90;;;;;;6249135;23;20472;-46
2022/08/28 02:01:18;;;;;;;22.43;20.53;;;18.80;99.90;;;;;;6249329;23;20150;-45
2022/08/28 02:03:43;;;;;;;24.53;22.50;;;18.80;99.90;;;;;;6248848;23;20230;-44
2022/08/28 02:06:09;;;;;;;20.80;19.10;;;18.80;99.90;;;;;;6249023;23;20790;-45
2022/08/28 02:08:35;;;;;;;21.60;19.80;;;18.80;99.90;;;;;;6248140;23;20156;-44
2022/08/28 02:11:02;;;;;;;22.03;20.23;;;18.80;99.90;;;;;;6248709;23;20380;-44
2022/08/28 02:13:28;;;;;;;26.40;24.20;;;18.80;99.90;;;;;;6249199;23;20512;-46
2022/08/28 02:15:54;;;;;;;21.33;19.60;;;18.80;99.90;;;;;;6249310;23;20358;-42
2022/08/28 02:18:19;;;;;;;21.33;19.63;;;18.80;99.90;;;;;;6248770;23;20151;-45
2022/08/28 02:20:45;;;;;;;19.57;17.87;;;18.80;99.90;;;;;;6246957;22;20138;-43
2022/08/28 02:23:11;;;;;;;20.70;18.90;;;18.80;99.90;;;;;;6248704;23;20138;-46
2022/08/28 02:25:37;;;;;;;21.33;19.50;;;18.80;99.90;;;;;;6248698;23;20167;-44
2022/08/28 02:28:02;;;;;;;18.17;16.67;;;18.80;99.90;;;;;;6247646;23;20783;-46
2022/08/28 02:30:28;;;;;;;20.77;19.07;;;18.80;99.90;;;;;;6248430;23;20132;-46
2022/08/28 02:32:54;;;;;;;20.80;19.00;;;18.90;99.90;;;;;;6247794;23;20273;-43
2022/08/28 02:35:21;;;;;;;21.20;19.30;;;18.90;99.90;;;;;;6247367;23;20219;-45
2022/08/28 02:37:48;;;;;;;21.47;19.67;;;18.90;99.90;;;;;;6248743;23;20565;-42
2022/08/28 02:40:15;;;;;;;21.80;19.90;;;18.90;99.90;;;;;;6249153;23;20381;-47
2022/08/28 02:42:42;;;;;;;20.23;18.53;;;18.90;99.90;;;;;;6249607;23;20769;-42
2022/08/28 02:45:10;;;;;;;20.33;18.63;;;18.90;99.90;;;;;;6247640;23;20433;-46
2022/08/28 02:47:37;;;;;;;21.10;19.30;;;18.90;99.90;;;;;;6249132;23;20449;-45
2022/08/28 02:50:03;;;;;;;21.63;19.70;;;18.90;99.90;;;;;;6248770;23;20466;-47
2022/08/28 02:52:29;;;;;;;20.93;19.23;;;18.90;99.90;;;;;;6247069;23;20361;-45
2022/08/28 02:54:54;;;;;;;21.73;19.90;;;18.80;99.90;;;;;;6248613;23;20444;-49
2022/08/28 02:57:20;;;;;;;20.03;18.30;;;18.90;99.90;;;;;;6249056;23;20173;-44
2022/08/28 02:59:46;;;;;;;20.23;18.53;;;18.80;99.90;;;;;;6250287;23;20170;-45
2022/08/28 03:02:13;;;;;;;20.83;19.03;;;18.90;99.90;;;;;;6248265;23;20221;-43
2022/08/28 03:04:38;;;;;;;21.33;19.50;;;18.80;99.90;;;;;;6249298;23;20783;-46
2022/08/28 03:07:08;;;;;;;22.20;20.20;;;18.90;99.90;;;;;;6248781;23;20776;-43
2022/08/28 03:09:34;;;;;;;24.17;21.90;;;18.80;99.90;;;;;;6248924;23;20146;-42
2022/08/28 03:11:59;;;;;;;22.90;20.70;;;18.80;99.90;;;;;;6248695;23;20446;-46
2022/08/28 03:14:25;;;;;;;22.23;20.10;;;18.80;99.90;;;;;;6249026;23;20386;-44
2022/08/28 03:16:51;;;;;;;22.27;20.13;;;18.80;99.90;;;;;;6250130;23;20139;-43
2022/08/28 03:19:17;;;;;;;23.43;21.30;;;18.70;99.90;;;;;;6250386;23;20155;-42
2022/08/28 03:21:42;;;;;;;23.27;21.00;;;18.80;99.90;;;;;;6248487;23;20373;-43
2022/08/28 03:24:08;;;;;;;22.57;20.43;;;18.70;99.90;;;;;;6221857;23;20461;-42
2022/08/28 03:26:34;;;;;;;21.90;19.80;;;18.70;99.90;;;;;;6249822;23;20174;-44
2022/08/28 03:29:00;;;;;;;21.50;19.50;;;18.70;99.90;;;;;;6249546;23;20221;-42
2022/08/28 03:31:28;;;;;;;22.20;20.20;;;18.70;99.90;;;;;;6247941;23;20156;-45
2022/08/28 03:33:54;;;;;;;21.50;19.60;;;18.70;99.90;;;;;;6248361;23;20611;-42
2022/08/28 03:36:24;;;;;;;23.43;21.07;;;18.70;99.90;;;;;;6248864;23;20702;-45
2022/08/28 03:38:51;;;;;;;24.77;22.47;;;18.70;99.90;;;;;;6248147;23;20399;-43
2022/08/28 03:41:19;;;;;;;24.03;21.73;;;18.70;99.90;;;;;;6246775;22;20362;-44
2022/08/28 03:43:45;;;;;;;22.33;20.23;;;18.60;99.90;;;;;;6248007;23;20428;-48
2022/08/28 03:46:14;;;;;;;23.40;21.00;;;18.60;99.90;;;;;;6247942;23;20364;-45
2022/08/28 03:48:40;;;;;;;21.53;19.57;;;18.60;99.90;;;;;;6249033;23;20663;-43
2022/08/28 03:51:08;;;;;;;26.73;23.90;;;18.60;99.90;;;;;;6249089;23;20353;-42
2022/08/28 03:53:33;;;;;;;26.63;24.13;;;18.50;99.90;;;;;;6249132;23;20788;-44
2022/08/28 03:55:59;;;;;;;26.47;23.67;;;18.50;99.90;;;;;;6247671;23;20707;-42
2022/08/28 03:58:25;;;;;;;21.57;19.60;;;18.50;99.90;;;;;;6247326;23;20190;-42
2022/08/28 04:00:51;;;;;;;24.57;22.17;;;18.50;99.90;;;;;;6249426;23;20357;-43
2022/08/28 04:03:17;;;;;;;26.63;24.10;;;18.50;99.90;;;;;;6248914;23;20469;-44
2022/08/28 04:05:44;;;;;;;21.23;19.20;;;18.50;99.90;;;;;;6246407;23;20153;-43
2022/08/28 04:08:14;;;;;;;24.20;21.63;;;18.50;99.90;;;;;;6247101;23;20354;-42
2022/08/28 04:10:41;;;;;;;19.57;17.67;;;18.50;99.90;;;;;;6246557;23;20357;-44
2022/08/28 04:13:07;;;;;;;23.13;21.07;;;18.50;99.90;;;;;;6246594;22;20347;-43
2022/08/28 04:15:32;;;;;;;20.97;18.77;;;18.50;99.90;;;;;;6246787;23;20411;-44
2022/08/28 04:17:59;;;;;;;22.27;20.07;;;18.50;99.90;;;;;;6246293;23;20367;-43
2022/08/28 04:20:25;;;;;;;23.10;20.83;;;18.50;99.90;;;;;;6248477;23;20477;-42
2022/08/28 04:22:51;;;;;;;21.20;19.10;;;18.50;99.90;;;;;;6247708;23;20363;-43
2022/08/28 04:25:17;;;;;;;21.20;18.80;;;18.50;99.90;;;;;;6248712;23;20421;-42
2022/08/28 04:27:42;;;;;;;20.00;17.77;;;18.50;99.90;;;;;;6247301;23;20477;-43
2022/08/28 04:30:10;;;;;;;22.20;20.00;;;18.60;99.90;;;;;;6247412;23;20150;-43
2022/08/28 04:32:36;;;;;;;22.67;20.47;;;18.60;99.90;;;;;;6249243;23;20213;-43
2022/08/28 04:35:03;;;;;;;20.60;18.40;;;18.70;99.90;;;;;;6247963;23;20527;-45
2022/08/28 04:37:30;;;;;;;20.80;18.90;;;18.70;99.90;;;;;;6245375;23;20439;-43
2022/08/28 04:39:56;;;;;;;26.73;24.13;;;18.70;99.90;;;;;;6247806;23;20513;-44
2022/08/28 04:42:21;;;;;;;20.77;18.73;;;18.80;99.90;;;;;;6248437;23;20375;-45
2022/08/28 04:44:47;;;;;;;19.33;17.53;;;18.80;99.90;;;;;;6249164;23;20509;-44
2022/08/28 04:47:13;;;;;;;20.67;18.70;;;18.80;99.90;;;;;;6248396;23;20130;-45
2022/08/28 04:49:39;;;;;;;18.20;16.40;;;18.80;99.90;;;;;;6248935;23;20553;-44
2022/08/28 04:52:05;;;;;;;19.87;17.97;;;18.90;99.90;;;;;;6248646;22;20145;-46
2022/08/28 04:54:32;;;;;;;21.87;19.90;;;18.90;99.90;;;;;;6249165;23;20386;-42
2022/08/28 04:56:58;;;;;;;18.50;16.87;;;18.90;99.90;;;;;;6222496;23;20392;-45
2022/08/28 04:59:24;;;;;;;18.87;17.17;;;19.00;99.90;;;;;;6248352;22;20460;-46
2022/08/28 05:01:50;;;;;;;17.90;16.17;;;19.00;99.90;;;;;;6248044;23;20447;-44
2022/08/28 05:04:18;;;;;;;17.97;16.37;;;19.00;99.90;;;;;;6248146;23;20245;-44
2022/08/28 05:06:45;;;;;;;21.47;19.37;;;19.10;99.90;;;;;;6246361;23;20359;-43
2022/08/28 05:09:13;;;;;;;22.00;19.93;;;19.10;99.90;;;;;;6221821;23;20727;-43
2022/08/28 05:11:38;;;;;;;19.20;17.30;;;19.10;99.90;;;;;;6247742;23;20349;-45
2022/08/28 05:14:08;;;;;;;20.73;18.73;;;19.10;99.90;;;;;;6247964;23;20396;-43
2022/08/28 05:16:41;;;;;;;22.27;20.07;;;19.20;99.90;;;;;;6221449;23;20389;-45
2022/08/28 05:19:07;;;;;;;21.00;19.00;;;19.20;99.90;;;;;;6248711;23;20657;-43
2022/08/28 05:21:33;;;;;;;22.80;20.50;;;19.30;99.90;;;;;;6247778;23;20768;-44
2022/08/28 05:23:59;;;;;;;24.53;22.17;;;19.20;99.90;;;;;;6248031;23;20677;-46
2022/08/28 05:26:25;;;;;;;23.20;21.00;;;19.30;99.90;;;;;;6249276;23;20151;-46
2022/08/28 05:28:53;;;;;;;27.37;24.53;;;19.30;99.90;;;;;;6248874;23;20538;-48
2022/08/28 05:31:20;;;;;;;27.90;24.90;;;19.30;99.90;;;;;;6249094;23;20782;-47
2022/08/28 05:33:47;;;;;;;24.93;21.63;;;19.30;99.90;;;;;;6248115;23;20799;-47
2022/08/28 05:36:15;;;;;;;24.03;21.73;;;19.30;99.90;;;;;;6247828;23;20380;-46
2022/08/28 05:38:41;;;;;;;21.53;19.57;;;19.30;99.90;;;;;;6245898;23;20386;-44
2022/08/28 05:41:07;;;;;;;20.97;18.77;;;19.40;99.90;;;;;;6247847;23;20777;-44
2022/08/28 05:43:35;;;;;;;21.50;19.40;;;19.40;99.90;;;;;;6245798;23;20396;-43
2022/08/28 05:46:09;;;;;;;23.80;21.40;;;19.40;99.90;;;;;;6245872;23;20384;-42
2022/08/28 05:48:36;;;;;;;23.23;21.10;;;19.40;99.90;;;;;;6247586;23;20799;-44
2022/08/28 05:51:06;;;;;;;26.07;23.37;;;19.50;99.90;;;;;;6221767;23;20461;-43
2022/08/28 05:53:34;;;;;;;22.13;19.97;;;19.50;99.90;;;;;;6249495;23;20356;-44
2022/08/28 05:56:03;;;;;;;21.07;17.77;;;19.50;99.90;;;;;;6249503;23;20386;-47
2022/08/28 05:58:30;;;;;;;19.73;17.90;;;19.50;99.90;;;;;;6248650;23;20460;-43
2022/08/28 06:01:06;;;;;;;20.03;18.10;;;19.50;99.90;;;;;;6247263;23;20601;-45
2022/08/28 06:03:32;;;;;;;21.10;18.83;;;19.60;99.90;;;;;;6247998;23;20440;-43
2022/08/28 06:05:59;;;;;;;21.80;19.67;;;19.60;99.90;;;;;;6248387;23;20381;-45
2022/08/28 06:08:28;;;;;;;21.47;19.30;;;19.70;99.90;;;;;;6248648;23;20854;-43
2022/08/28 06:10:55;;;;;;;20.83;18.80;;;19.70;99.90;;;;;;6248018;23;20406;-43
2022/08/28 06:13:22;;;;;;;17.40;15.57;;;19.70;99.90;;;;;;6248418;23;20375;-43
2022/08/28 06:15:48;;;;;;;22.00;19.80;;;19.70;99.90;;;;;;6248432;23;20403;-44
2022/08/28 06:18:15;;;;;;;20.83;18.73;;;19.70;99.90;;;;;;6247007;23;20355;-43
2022/08/28 06:20:43;;;;;;;20.17;18.20;;;19.70;99.90;;;;;;6246878;23;20157;-44
2022/08/28 06:23:11;;;;;;;19.13;17.37;;;19.80;99.90;;;;;;6247074;23;20390;-44
2022/08/28 06:25:47;;;;;;;23.13;21.00;;;19.80;99.90;;;;;;6247037;23;20407;-43
2022/08/28 06:28:20;;;;;;;23.40;18.10;;;19.80;99.90;;;;;;6249579;23;20387;-45
2022/08/28 06:30:45;;;;;;;22.47;20.30;;;19.90;99.90;;;;;;6249358;23;20361;-42
2022/08/28 06:33:12;;;;;;;21.40;19.40;;;19.90;99.90;;;;;;6250317;23;20724;-43
2022/08/28 06:35:53;;;;;;;20.60;18.60;;;19.90;99.90;;;;;;6249041;23;20191;-44
2022/08/28 06:38:21;;;;;;;18.00;16.20;;;20.00;99.90;;;;;;6250162;23;20400;-46
2022/08/28 06:40:50;;;;;;;18.50;16.80;;;20.00;99.90;;;;;;6250436;23;20645;-44
2022/08/28 06:43:17;;;;;;;19.67;17.73;;;20.10;99.90;;;;;;6250086;23;20397;-46
2022/08/28 06:45:46;;;;;;;20.97;18.83;;;20.10;99.90;;;;;;6249692;23;20440;-44
2022/08/28 06:48:18;;;;;;;20.60;18.60;;;20.10;99.90;;;;;;6250047;23;20380;-43
2022/08/28 06:50:46;;;;;;;20.00;18.10;;;20.10;99.90;;;;;;6250589;22;20357;-44
2022/08/28 06:53:13;;;;;;;18.77;16.60;;;20.10;99.90;;;;;;6248132;23;20398;-45
2022/08/28 06:55:39;;;;;;;22.07;17.43;;;20.20;99.90;;;;;;6248750;23;20369;-44
2022/08/28 06:58:06;;;;;;;20.80;18.70;;;20.20;99.90;;;;;;6250340;23;20395;-43
2022/08/28 07:00:33;;;;;;;18.67;16.93;;;20.30;99.90;;;;;;6247607;23;20354;-43
2022/08/28 07:02:58;;;;;;;17.83;16.07;;;20.30;99.90;;;;;;6247825;22;20863;-42
2022/08/28 07:05:24;;;;;;;20.00;17.90;;;20.30;99.90;;;;;;6247890;23;20404;-44
2022/08/28 07:07:50;;;;;;;20.37;18.07;;;20.30;99.90;;;;;;6247931;23;20156;-46
2022/08/28 07:10:16;;;;;;;19.33;17.40;;;20.30;99.90;;;;;;6248152;23;20133;-43
2022/08/28 07:12:41;;;;;;;18.50;16.60;;;20.40;99.90;;;;;;6248555;23;20150;-43
2022/08/28 07:15:08;;;;;;;19.00;17.07;;;20.40;99.90;;;;;;6248105;23;20370;-43
2022/08/28 07:17:34;;;;;;;18.53;16.63;;;20.40;99.90;;;;;;6249866;23;20170;-45
2022/08/28 07:20:02;;;;;;;22.53;20.10;;;20.40;99.90;;;;;;6249645;23;20370;-45
2022/08/28 07:22:28;;;;;;;22.70;20.43;;;20.40;99.90;;;;;;6223029;23;20402;-45
2022/08/28 07:24:55;;;;;;;20.10;18.00;;;20.40;99.90;;;;;;6222676;23;20510;-46
2022/08/28 07:27:21;;;;;;;19.80;17.40;;;20.40;99.90;;;;;;6248611;23;20386;-43
2022/08/28 07:29:47;;;;;;;19.83;17.90;;;20.40;99.90;;;;;;6249622;23;20366;-45
2022/08/28 07:32:14;;;;;;;26.00;23.50;;;20.40;99.90;;;;;;6248947;23;20394;-43
2022/08/28 07:34:40;;;;;;;22.87;20.47;;;20.50;99.90;;;;;;6248601;23;20207;-43
2022/08/28 07:37:07;;;;;;;21.37;19.40;;;20.50;99.90;;;;;;6249242;22;20401;-43
2022/08/28 07:39:33;;;;;;;20.10;18.20;;;20.60;99.90;;;;;;6246955;23;20471;-47
2022/08/28 07:41:59;;;;;;;20.60;18.50;;;20.60;99.90;;;;;;6249781;23;20394;-44
2022/08/28 07:47:10;;;;;;;18.80;17.00;;;20.70;99.90;;;;;;6248746;23;20385;-43
2022/08/28 07:49:37;;;;;;;18.73;17.07;;;20.70;99.90;;;;;;6248509;23;20351;-45
2022/08/28 07:52:06;;;;;;;19.53;17.67;;;20.80;99.90;;;;;;6249707;23;20484;-44
2022/08/28 07:54:34;;;;;;;18.70;16.80;;;21.00;99.90;;;;;;6247975;23;20360;-43
2022/08/28 07:57:03;;;;;;;16.90;15.20;;;21.20;99.90;;;;;;6248376;23;20488;-43
2022/08/28 07:59:29;;;;;;;18.47;16.73;;;21.40;99.90;;;;;;6221841;23;20377;-44
2022/08/28 08:01:54;;;;;;;17.37;15.80;;;21.60;99.90;;;;;;6246717;23;20393;-45
2022/08/28 08:04:21;;;;;;;17.10;15.53;;;21.80;99.90;;;;;;6248090;23;20185;-45
2022/08/28 08:06:48;;;;;;;21.37;19.40;;;22.00;99.90;;;;;;6248042;22;20185;-43
2022/08/28 08:09:15;;;;;;;19.80;17.90;;;22.10;99.90;;;;;;6247224;23;20353;-43
2022/08/28 08:11:41;;;;;;;16.30;14.90;;;22.10;99.90;;;;;;6247723;23;20390;-43
2022/08/28 08:14:07;;;;;;;16.57;14.97;;;22.10;99.90;;;;;;6247091;23;20359;-46
2022/08/28 08:16:37;;;;;;;16.43;14.83;;;22.00;99.90;;;;;;6246218;23;20795;-44
2022/08/28 08:19:03;;;;;;;18.10;16.50;;;22.00;99.90;;;;;;6246371;23;20143;-43
2022/08/28 08:21:29;;;;;;;17.53;15.90;;;22.10;99.90;;;;;;6247284;23;20740;-44
2022/08/28 08:23:55;;;;;;;20.80;18.90;;;22.20;99.90;;;;;;6245913;23;20401;-45
2022/08/28 08:26:23;;;;;;;14.30;13.03;;;22.30;99.90;;;;;;6246694;23;20155;-43
2022/08/28 08:28:50;;;;;;;16.00;14.37;;;22.50;99.90;;;;;;6246201;23;20170;-43
2022/08/28 08:31:23;;;;;;;15.70;14.20;;;22.70;99.90;;;;;;6246601;23;20738;-44
2022/08/28 08:33:51;;;;;;;15.00;13.40;;;22.80;99.90;;;;;;6247150;23;20432;-44
2022/08/28 08:36:19;;;;;;;15.70;14.30;;;22.80;99.50;;;;;;6244588;23;20814;-43
2022/08/28 08:38:45;;;;;;;17.33;15.63;;;22.70;99.40;;;;;;6244045;23;20372;-43
2022/08/28 08:41:21;;;;;;;15.17;13.67;;;22.60;99.00;;;;;;6245216;23;20390;-43
2022/08/28 08:44:10;;;;;;;16.37;14.60;;;22.40;99.50;;;;;;6245885;23;20418;-43
2022/08/28 08:46:40;;;;;;;17.63;16.13;;;22.30;99.90;;;;;;6245805;22;20374;-44
2022/08/28 08:49:13;;;;;;;15.97;14.47;;;22.20;99.90;;;;;;6245347;23;20634;-45
2022/08/28 08:51:42;;;;;;;14.60;13.40;;;22.20;99.90;;;;;;6246342;23;20413;-43
2022/08/28 08:54:14;;;;;;;14.87;13.57;;;22.40;99.90;;;;;;6247130;23;20713;-43
2022/08/28 08:56:41;;;;;;;19.63;14.53;;;22.60;99.90;;;;;;6245532;23;20386;-43
2022/08/28 08:59:12;;;;;;;15.87;14.27;;;22.80;99.90;;;;;;6243970;23;20362;-45
2022/08/28 09:01:43;;;;;;;15.07;13.67;;;23.10;99.30;;;;;;6245275;23;20389;-43
2022/08/28 09:04:39;;;;;;;15.10;13.80;;;23.20;98.90;;;;;;6245761;23;20755;-43
2022/08/28 09:07:18;;;;;;;14.67;13.27;;;23.30;98.60;;;;;;6248513;23;20451;-43
2022/08/28 09:09:48;;;;;;;16.10;14.60;;;23.30;98.60;;;;;;6245667;23;20646;-44
2022/08/28 09:12:21;;;;;;;16.30;14.20;;;23.40;98.50;;;;;;6246045;23;20373;-44
2022/08/28 09:14:53;;;;;;;16.33;14.83;;;23.40;98.20;;;;;;6246319;23;20381;-45
2022/08/28 09:17:23;;;;;;;13.77;12.40;;;23.40;98.40;;;;;;6247498;23;20403;-43
2022/08/28 09:19:48;;;;;;;14.43;13.00;;;23.50;98.30;;;;;;6246044;23;20363;-43
2022/08/28 09:22:15;;;;;;;14.27;12.77;;;23.80;98.40;;;;;;6246906;23;20384;-43
2022/08/28 09:24:41;;;;;;;16.53;15.03;;;24.10;97.50;;;;;;6247975;23;20187;-45
2022/08/28 09:27:08;;;;;;;15.27;13.77;;;24.30;96.60;;;;;;6247482;23;20525;-42
2022/08/28 09:29:37;;;;;;;16.13;14.63;;;24.70;96.40;;;;;;6246085;23;20355;-45
2022/08/28 09:32:15;;;;;;;15.20;13.80;;;25.20;96.00;;;;;;6245315;23;20475;-44
2022/08/28 09:34:59;;;;;;;14.40;13.10;;;25.50;95.00;;;;;;6246228;23;20429;-45
2022/08/28 09:37:26;;;;;;;13.43;12.33;;;25.60;94.10;;;;;;6244015;22;20390;-44
2022/08/28 09:40:18;;;;;;;14.53;13.23;;;25.70;94.00;;;;;;6244155;23;20410;-46
2022/08/28 09:45:41;;;;;;;12.50;11.30;;;26.60;93.80;;;;;;6243591;23;20466;-45
2022/08/28 09:48:23;;;;;;;14.43;13.13;;;26.80;92.40;;;;;;6244738;23;20387;-45
2022/08/28 09:51:03;;;;;;;15.77;14.27;;;26.60;91.00;;;;;;6246258;23;20143;-45
2022/08/28 09:53:35;;;;;;;13.73;12.50;;;26.30;91.60;;;;;;6243604;23;20471;-43
2022/08/28 09:56:12;;;;;;;12.53;11.43;;;26.10;92.10;;;;;;6242507;23;20915;-43
2022/08/28 09:58:52;;;;;;;13.00;12.00;;;26.30;92.50;;;;;;6246333;22;20353;-43
2022/08/28 10:01:59;;;;;;;12.00;10.90;;;26.90;91.90;;;;;;6244768;23;20763;-44
2022/08/28 10:04:49;;;;;;;11.83;10.83;;;27.60;90.50;;;;;;6221142;23;20525;-46
2022/08/28 10:07:39;;;;;;;13.03;11.80;;;27.70;88.50;;;;;;6246336;23;20395;-45
2022/08/28 10:10:23;;;;;;;13.40;12.10;;;27.70;87.70;;;;;;6246438;23;20461;-49
2022/08/28 10:13:05;;;;;;;11.93;10.93;;;27.60;87.50;;;;;;6248426;23;20376;-46
2022/08/28 10:15:40;;;;;;;12.67;11.50;;;27.50;86.50;;;;;;6244452;23;20416;-45
2022/08/28 10:18:36;;;;;;;12.40;10.30;;;27.30;86.70;;;;;;6247700;23;20406;-46
2022/08/28 10:21:30;;;;;;;12.17;10.87;;;27.00;87.40;;;;;;6246625;23;20830;-44
2022/08/28 10:24:16;;;;;;;12.50;11.40;;;27.00;88.30;;;;;;6247186;23;20454;-46
2022/08/28 10:26:55;;;;;;;12.10;10.90;;;26.90;87.60;;;;;;6237088;23;20408;-45
2022/08/28 10:29:32;;;;;;;11.47;10.37;;;26.80;87.00;;;;;;6247121;23;20422;-44
2022/08/28 10:32:30;;;;;;;11.53;10.27;;;26.70;87.70;;;;;;6248244;23;20447;-47
2022/08/28 10:35:08;;;;;;;11.27;10.17;;;26.60;88.50;;;;;;6220560;23;20503;-47
2022/08/28 10:37:55;;;;;;;9.80;9.00;;;26.30;88.50;;;;;;6245573;23;20408;-44
2022/08/28 10:40:31;;;;;;;11.83;10.73;;;26.10;88.80;;;;;;6245066;23;20658;-44
2022/08/28 10:43:15;;;;;;;10.43;9.53;;;26.00;89.50;;;;;;6242738;23;20364;-46
2022/08/28 10:45:41;;;;;;;11.20;10.10;;;25.90;90.00;;;;;;6245221;23;20423;-45
2022/08/28 10:48:29;;;;;;;10.90;10.00;;;26.30;89.90;;;;;;6246417;23;20785;-43
2022/08/28 10:51:05;;;;;;;10.43;9.60;;;26.40;89.50;;;;;;6247549;22;20470;-44
2022/08/28 10:53:45;;;;;;;11.33;10.40;;;26.30;88.50;;;;;;6245812;23;20374;-44
2022/08/28 10:56:24;;;;;;;11.20;10.10;;;26.40;88.40;;;;;;6246635;23;20391;-47
2022/08/28 10:58:55;;;;;;;12.33;11.30;;;26.40;88.10;;;;;;6247220;23;20871;-46
2022/08/28 11:01:33;;;;;;;10.70;9.90;;;26.90;89.30;;;;;;6247101;23;20478;-47
2022/08/28 11:04:02;;;;;;;10.40;9.50;;;28.00;87.10;;;;;;6245199;23;20889;-44
2022/08/28 11:06:41;;;;;;;12.03;10.70;;;29.00;83.30;;;;;;6244500;23;20387;-45
2022/08/28 11:09:26;;;;;;;9.60;8.90;;;30.10;78.70;;;;;;6245550;23;20364;-47
2022/08/28 11:11:52;;;;;;;9.73;8.93;;;31.10;76.30;;;;;;6246228;23;20393;-45
2022/08/28 11:14:39;;;;;;;10.37;9.47;;;31.90;70.20;;;;;;6247015;23;20348;-47
2022/08/28 11:17:21;;;;;;;10.13;9.20;;;32.80;64.40;;;;;;6248942;23;20786;-45
2022/08/28 11:20:25;;;;;;;9.73;8.73;;;33.30;62.00;;;;;;6246900;23;20358;-49
2022/08/28 11:23:09;;;;;;;9.23;8.40;;;33.60;61.20;;;;;;6221968;23;20371;-45
2022/08/28 11:25:50;;;;;;;9.33;8.53;;;33.80;58.10;;;;;;6248208;23;20399;-45
2022/08/28 11:28:24;;;;;;;10.10;9.20;;;33.50;56.30;;;;;;6248958;23;20335;-45
2022/08/28 11:31:02;;;;;;;9.50;8.60;;;33.30;55.90;;;;;;6246662;23;20408;-47
2022/08/28 11:33:51;;;;;;;9.43;8.73;;;33.10;55.40;;;;;;6247054;23;20364;-47
2022/08/28 11:36:20;;;;;;;9.13;8.43;;;33.10;54.70;;;;;;6246839;23;20492;-47
2022/08/28 11:38:54;;;;;;;9.23;8.50;;;33.30;54.90;;;;;;6247642;23;20365;-43
2022/08/28 11:41:32;;;;;;;10.47;9.53;;;33.40;54.70;;;;;;6248463;23;20411;-45
2022/08/28 11:44:09;;;;;;;9.40;8.60;;;33.00;54.80;;;;;;6248270;23;20425;-45
2022/08/28 11:46:49;;;;;;;10.00;9.23;;;32.30;55.10;;;;;;6248937;23;20364;-45
2022/08/28 11:49:33;;;;;;;9.77;9.00;;;31.50;55.70;;;;;;6247592;23;20330;-47
2022/08/28 11:52:30;;;;;;;9.87;8.87;;;30.70;56.90;;;;;;6248128;23;20444;-45
2022/08/28 11:55:21;;;;;;;10.00;9.20;;;29.80;58.20;;;;;;6247562;23;20449;-45
2022/08/28 11:58:05;;;;;;;9.83;9.03;;;29.50;59.30;;;;;;6246079;22;20361;-46
2022/08/28 12:00:46;;;;;;;9.93;9.10;;;29.40;61.50;;;;;;6247036;23;20369;-48
2022/08/28 12:03:14;;;;;;;10.63;9.77;;;29.50;62.30;;;;;;6220510;23;20446;-44
2022/08/28 12:05:52;;;;;;;9.70;8.80;;;29.70;61.10;;;;;;6219329;23;20805;-47
2022/08/28 12:08:42;;;;;;;9.73;8.93;;;29.90;60.40;;;;;;6245528;23;20450;-44
2022/08/28 12:11:09;;;;;;;8.30;7.60;;;30.00;59.80;;;;;;6246413;23;20363;-44
2022/08/28 12:13:51;;;;;;;8.27;7.40;;;30.60;58.40;;;;;;6247452;23;20640;-47
2022/08/28 12:16:17;;;;;;;9.13;8.27;;;31.50;57.10;;;;;;6246076;23;20320;-44
2022/08/28 12:18:46;;;;;;;8.90;8.20;;;32.30;54.70;;;;;;6219972;23;20697;-45
2022/08/28 12:21:20;;;;;;;8.30;7.70;;;33.10;54.60;;;;;;6246889;23;20362;-48
2022/08/28 12:24:15;;;;;;;8.00;7.30;;;33.90;53.10;;;;;;6245775;23;20707;-47
2022/08/28 12:26:51;;;;;;;8.03;7.33;;;34.20;49.90;;;;;;6244955;23;20331;-47
2022/08/28 12:29:30;;;;;;;8.13;7.43;;;34.70;50.20;;;;;;6245559;23;20877;-47
2022/08/28 12:32:20;;;;;;;8.03;7.33;;;35.30;48.70;;;;;;6247182;23;20347;-46
2022/08/28 12:34:51;;;;;;;8.23;7.27;;;35.60;48.00;;;;;;6246812;23;20439;-45
2022/08/28 12:37:20;;;;;;;7.90;7.20;;;35.60;47.80;;;;;;6247624;23;20426;-47
2022/08/28 12:39:45;;;;;;;8.00;7.30;;;35.10;47.50;;;;;;6248112;23;20371;-48
2022/08/28 12:42:16;;;;;;;7.43;6.90;;;34.90;46.80;;;;;;6245587;23;20388;-47
2022/08/28 12:44:42;;;;;;;7.77;7.07;;;35.00;47.20;;;;;;6246655;23;20177;-44
2022/08/28 12:47:08;;;;;;;7.10;6.60;;;35.30;46.10;;;;;;6243239;23;20374;-47
2022/08/28 12:49:35;;;;;;;7.93;7.40;;;35.30;46.70;;;;;;6243994;23;20161;-46
2022/08/28 12:52:14;;;;;;;9.57;8.30;;;35.30;46.40;;;;;;6245571;23;20452;-45
2022/08/28 12:54:41;;;;;;;9.13;8.40;;;34.80;47.30;;;;;;6246176;23;20563;-49
2022/08/28 12:57:10;;;;;;;8.50;7.80;;;34.20;48.00;;;;;;6245892;23;20392;-45
2022/08/28 12:59:37;;;;;;;8.90;8.00;;;33.50;48.90;;;;;;6244883;23;20722;-45